createdAt,value
2018-09-01T00:02:30.734Z,61.71
2018-09-01T00:05:04.305Z,61.71
2018-09-01T00:07:39.750Z,61.83
2018-09-01T00:10:13.172Z,62.23
2018-09-01T00:12:46.597Z,62.12
2018-09-01T00:15:21.393Z,62.13
2018-09-01T00:17:55.486Z,62.31
2018-09-01T00:20:28.889Z,62.33
2018-09-01T00:23:02.306Z,62.81
2018-09-01T00:25:35.653Z,62.79
2018-09-01T00:28:09.137Z,62.82
2018-09-01T00:30:42.558Z,62.46
2018-09-01T00:33:16.040Z,62.68
2018-09-01T00:35:49.486Z,62.73
2018-09-01T00:38:29.499Z,62.87
2018-09-01T00:41:02.854Z,63.03
2018-09-01T00:43:36.157Z,63.05
2018-09-01T00:46:09.724Z,62.78
2018-09-01T00:48:43.223Z,62.67
2018-09-01T00:51:16.579Z,62.32
2018-09-01T00:53:49.880Z,62.64
2018-09-01T00:56:23.213Z,62.33
2018-09-01T00:58:56.516Z,62.08
2018-09-01T01:01:29.917Z,62.36
2018-09-01T01:04:03.262Z,62.73
2018-09-01T01:06:36.671Z,62.67
2018-09-01T01:09:09.979Z,62.58
2018-09-01T01:11:43.352Z,62.78
2018-09-01T01:14:16.688Z,62.93
2018-09-01T01:16:50.037Z,62.98
2018-09-01T01:19:23.369Z,63.12
2018-09-01T01:21:56.682Z,63.15
2018-09-01T01:24:30.469Z,63.09
2018-09-01T01:27:04.405Z,63.30
2018-09-01T01:29:37.775Z,63.52
2018-09-01T01:32:11.108Z,63.56
2018-09-01T01:34:44.449Z,63.45
2018-09-01T01:37:17.825Z,63.58
2018-09-01T01:39:51.341Z,63.18
2018-09-01T01:42:24.717Z,63.45
2018-09-01T01:44:58.590Z,63.21
2018-09-01T01:47:31.960Z,62.94
2018-09-01T01:50:06.730Z,63.12
2018-09-01T01:52:40.160Z,63.19
2018-09-01T01:55:13.463Z,63.33
2018-09-01T01:57:50.121Z,63.21
2018-09-01T02:00:23.448Z,63.26
2018-09-01T02:02:56.803Z,63.30
2018-09-01T02:05:33.088Z,63.62
2018-09-01T02:08:06.463Z,63.16
2018-09-01T02:10:39.817Z,63.59
2018-09-01T02:13:13.146Z,63.30
2018-09-01T02:15:46.429Z,63.63
2018-09-01T02:18:19.772Z,63.61
2018-09-01T02:20:53.119Z,63.70
2018-09-01T02:23:26.461Z,63.43
2018-09-01T02:25:59.808Z,63.71
2018-09-01T02:28:33.145Z,63.76
2018-09-01T02:31:06.554Z,63.58
2018-09-01T02:33:39.941Z,63.50
2018-09-01T02:36:13.237Z,63.30
2018-09-01T02:38:46.553Z,63.87
2018-09-01T02:41:19.938Z,64.03
2018-09-01T02:43:53.295Z,63.83
2018-09-01T02:46:26.596Z,63.74
2018-09-01T02:48:59.917Z,63.77
2018-09-01T02:51:33.233Z,63.74
2018-09-01T02:54:06.592Z,63.85
2018-09-01T02:56:39.898Z,63.73
2018-09-01T02:59:13.230Z,64.01
2018-09-01T03:01:46.522Z,63.82
2018-09-01T03:04:19.885Z,64.15
2018-09-01T03:06:57.998Z,64.10
2018-09-01T03:09:31.333Z,63.53
2018-09-01T03:12:04.678Z,63.58
2018-09-01T03:14:38.070Z,63.61
2018-09-01T03:17:11.381Z,63.68
2018-09-01T03:19:44.734Z,63.52
2018-09-01T03:22:18.058Z,63.66
2018-09-01T03:24:51.380Z,63.48
2018-09-01T03:27:24.758Z,63.63
2018-09-01T03:29:58.085Z,63.56
2018-09-01T03:32:31.445Z,63.64
2018-09-01T03:35:04.869Z,63.66
2018-09-01T03:37:38.219Z,63.55
2018-09-01T03:40:11.556Z,63.87
2018-09-01T03:42:44.904Z,63.83
2018-09-01T03:45:18.232Z,64.21
2018-09-01T03:47:51.934Z,64.10
2018-09-01T03:50:25.286Z,64.01
2018-09-01T03:52:58.584Z,64.24
2018-09-01T03:55:31.924Z,63.95
2018-09-01T03:58:05.442Z,64.38
2018-09-01T04:00:38.835Z,64.10
2018-09-01T04:03:12.146Z,63.88
2018-09-01T04:05:45.529Z,63.71
2018-09-01T04:08:18.865Z,63.39
2018-09-01T04:10:52.225Z,63.42
2018-09-01T04:13:25.562Z,63.87
2018-09-01T04:15:58.882Z,63.84
2018-09-01T04:18:32.252Z,63.53
2018-09-01T04:21:05.656Z,63.56
2018-09-01T04:23:38.992Z,63.68
2018-09-01T04:26:12.319Z,63.75
2018-09-01T04:28:45.605Z,63.79
2018-09-01T04:31:18.933Z,63.95
2018-09-01T04:33:52.242Z,64.09
2018-09-01T04:36:25.736Z,64.06
2018-09-01T04:38:59.076Z,64.25
2018-09-01T04:41:32.453Z,64.19
2018-09-01T04:44:05.793Z,64.04
2018-09-01T04:46:39.753Z,63.88
2018-09-01T04:49:13.052Z,64.31
2018-09-01T04:51:46.417Z,64.46
2018-09-01T04:54:19.729Z,64.41
2018-09-01T04:56:53.194Z,63.97
2018-09-01T04:59:26.492Z,63.92
2018-09-01T05:01:59.965Z,63.95
2018-09-01T05:04:33.272Z,64.51
2018-09-01T05:07:07.027Z,64.31
2018-09-01T05:09:40.409Z,64.22
2018-09-01T05:12:13.753Z,64.36
2018-09-01T05:14:47.100Z,64.28
2018-09-01T05:17:20.445Z,64.21
2018-09-01T05:19:53.764Z,64.25
2018-09-01T05:22:27.093Z,64.35
2018-09-01T05:25:00.475Z,64.54
2018-09-01T05:27:33.903Z,64.33
2018-09-01T05:30:08.378Z,64.43
2018-09-01T05:32:41.718Z,64.45
2018-09-01T05:35:15.040Z,64.46
2018-09-01T05:37:48.429Z,64.49
2018-09-01T05:40:21.733Z,64.50
2018-09-01T05:42:55.101Z,64.76
2018-09-01T05:45:28.424Z,64.39
2018-09-01T05:48:02.145Z,64.55
2018-09-01T05:50:35.450Z,64.68
2018-09-01T05:53:08.801Z,64.66
2018-09-01T05:55:42.107Z,64.47
2018-09-01T05:58:15.440Z,64.25
2018-09-01T06:00:50.117Z,64.04
2018-09-01T06:03:23.512Z,64.03
2018-09-01T06:05:56.973Z,63.63
2018-09-01T06:08:30.291Z,63.82
2018-09-01T06:11:03.640Z,63.67
2018-09-01T06:13:36.989Z,63.74
2018-09-01T06:16:10.367Z,63.29
2018-09-01T06:18:43.709Z,63.13
2018-09-01T06:21:17.032Z,63.06
2018-09-01T06:23:50.382Z,63.07
2018-09-01T06:26:23.732Z,62.96
2018-09-01T06:29:07.775Z,62.19
2018-09-01T06:31:44.225Z,62.68
2018-09-01T06:34:17.588Z,62.86
2018-09-01T06:36:50.891Z,63.23
2018-09-01T06:39:24.240Z,62.42
2018-09-01T06:41:57.548Z,63.00
2018-09-01T06:44:31.267Z,62.48
2018-09-01T06:47:04.573Z,62.49
2018-09-01T06:49:37.924Z,62.07
2018-09-01T06:52:11.236Z,61.62
2018-09-01T06:54:44.563Z,61.12
2018-09-01T06:57:17.853Z,61.31
2018-09-01T06:59:51.185Z,61.77
2018-09-01T07:02:24.493Z,61.81
2018-09-01T07:04:57.845Z,61.55
2018-09-01T07:07:31.233Z,61.58
2018-09-01T07:10:04.611Z,61.43
2018-09-01T07:12:37.937Z,61.40
2018-09-01T07:15:11.273Z,61.45
2018-09-01T07:17:44.885Z,61.57
2018-09-01T07:20:18.230Z,61.13
2018-09-01T07:22:51.593Z,61.35
2018-09-01T07:25:24.980Z,60.61
2018-09-01T07:27:58.297Z,59.98
2018-09-01T07:30:31.757Z,59.92
2018-09-01T07:33:05.143Z,59.45
2018-09-01T07:35:38.487Z,59.26
2018-09-01T07:38:11.836Z,59.50
2018-09-01T07:40:45.169Z,58.21
2018-09-01T07:43:18.626Z,58.17
2018-09-01T07:45:51.968Z,58.38
2018-09-01T07:48:25.298Z,57.92
2018-09-01T07:50:58.598Z,57.63
2018-09-01T07:53:32.007Z,57.40
2018-09-01T07:56:05.535Z,57.09
2018-09-01T07:58:38.754Z,57.37
2018-09-01T08:01:12.162Z,57.27
2018-09-01T08:03:45.568Z,57.01
2018-09-01T08:06:18.896Z,57.35
2018-09-01T08:08:52.244Z,56.70
2018-09-01T08:11:25.552Z,56.23
2018-09-01T08:13:58.950Z,55.78
2018-09-01T08:16:32.218Z,55.48
2018-09-01T08:19:06.034Z,56.28
2018-09-01T08:21:39.384Z,56.34
2018-09-01T08:24:12.712Z,56.08
2018-09-01T08:26:46.093Z,55.00
2018-09-01T08:29:19.402Z,54.46
2018-09-01T08:31:52.711Z,55.02
2018-09-01T08:34:26.038Z,54.96
2018-09-01T08:36:59.345Z,55.33
2018-09-01T08:39:32.721Z,55.63
2018-09-01T08:42:06.105Z,55.73
2018-09-01T08:44:39.439Z,54.54
2018-09-01T08:47:12.763Z,54.89
2018-09-01T08:49:46.121Z,55.01
2018-09-01T08:52:19.453Z,54.03
2018-09-01T08:54:52.867Z,53.51
2018-09-01T08:57:26.185Z,53.17
2018-09-01T08:59:59.526Z,52.80
2018-09-01T09:02:32.846Z,52.97
2018-09-01T09:05:06.307Z,52.95
2018-09-01T09:07:39.648Z,52.47
2018-09-01T09:10:13.000Z,51.35
2018-09-01T09:12:46.318Z,51.53
2018-09-01T09:15:19.645Z,51.95
2018-09-01T09:17:52.978Z,52.72
2018-09-01T09:20:26.357Z,52.31
2018-09-01T09:22:59.687Z,52.23
2018-09-01T09:25:33.036Z,51.90
2018-09-01T09:28:06.439Z,50.87
2018-09-01T09:30:39.793Z,50.71
2018-09-01T09:33:13.393Z,50.19
2018-09-01T09:35:46.893Z,50.56
2018-09-01T09:38:20.240Z,52.30
2018-09-01T09:40:53.640Z,51.87
2018-09-01T09:43:26.985Z,51.67
2018-09-01T09:46:00.370Z,50.36
2018-09-01T09:48:33.698Z,50.80
2018-09-01T09:51:07.059Z,51.38
2018-09-01T09:53:40.396Z,51.44
2018-09-01T09:56:13.764Z,51.30
2018-09-01T09:58:47.110Z,51.14
2018-09-01T10:01:25.730Z,50.45
2018-09-01T10:03:59.048Z,51.00
2018-09-01T10:06:32.408Z,50.28
2018-09-01T10:09:08.434Z,50.97
2018-09-01T10:11:42.593Z,50.19
2018-09-01T10:14:15.922Z,50.40
2018-09-01T10:16:49.263Z,51.26
2018-09-01T10:19:22.589Z,51.44
2018-09-01T10:21:55.898Z,50.87
2018-09-01T10:24:29.192Z,50.69
2018-09-01T10:27:02.535Z,51.34
2018-09-01T10:29:35.841Z,51.24
2018-09-01T10:32:09.356Z,50.60
2018-09-01T10:34:42.639Z,50.62
2018-09-01T10:37:15.969Z,50.05
2018-09-01T10:39:49.308Z,49.82
2018-09-01T10:42:22.657Z,50.50
2018-09-01T10:44:56.022Z,51.21
2018-09-01T10:47:29.449Z,50.36
2018-09-01T10:50:02.782Z,51.43
2018-09-01T10:52:37.130Z,50.58
2018-09-01T10:55:10.622Z,49.91
2018-09-01T10:57:44.028Z,49.92
2018-09-01T11:00:20.118Z,50.07
2018-09-01T11:02:53.909Z,49.94
2018-09-01T11:05:27.274Z,49.31
2018-09-01T11:08:00.733Z,48.45
2018-09-01T11:10:34.061Z,47.25
2018-09-01T11:13:07.384Z,44.56
2018-09-01T11:15:40.737Z,45.67
2018-09-01T11:18:14.029Z,45.77
2018-09-01T11:20:47.415Z,45.14
2018-09-01T11:23:20.711Z,44.71
2018-09-01T11:25:54.050Z,44.57
2018-09-01T11:28:27.386Z,44.27
2018-09-01T11:31:00.853Z,43.20
2018-09-01T11:33:34.190Z,44.46
2018-09-01T11:36:07.559Z,44.88
2018-09-01T11:38:40.860Z,44.23
2018-09-01T11:41:14.187Z,44.29
2018-09-01T11:43:47.525Z,44.53
2018-09-01T11:46:20.842Z,45.81
2018-09-01T11:48:54.163Z,45.39
2018-09-01T11:51:27.484Z,44.95
2018-09-01T11:54:00.820Z,45.23
2018-09-01T11:56:34.136Z,46.44
2018-09-01T11:59:07.452Z,45.50
2018-09-01T12:01:40.793Z,45.27
2018-09-01T12:04:15.076Z,45.03
2018-09-01T12:06:48.419Z,44.55
2018-09-01T12:09:21.748Z,43.56
2018-09-01T12:11:55.064Z,44.02
2018-09-01T12:14:28.369Z,44.32
2018-09-01T12:17:01.772Z,43.72
2018-09-01T12:19:35.110Z,43.52
2018-09-01T12:22:08.498Z,43.25
2018-09-01T12:24:41.774Z,43.76
2018-09-01T12:27:15.237Z,42.50
2018-09-01T12:29:48.545Z,42.43
2018-09-01T12:32:21.893Z,42.29
2018-09-01T12:34:55.197Z,42.10
2018-09-01T12:37:28.529Z,41.64
2018-09-01T12:40:01.893Z,40.84
2018-09-01T12:42:35.205Z,40.05
2018-09-01T12:45:08.556Z,38.57
2018-09-01T12:47:41.870Z,38.18
2018-09-01T12:50:15.188Z,37.34
2018-09-01T12:52:48.537Z,37.10
2018-09-01T12:55:21.838Z,37.40
2018-09-01T12:57:55.168Z,39.09
2018-09-01T13:00:28.470Z,39.03
2018-09-01T13:03:01.864Z,39.20
2018-09-01T13:05:35.202Z,38.53
2018-09-01T13:08:08.678Z,39.74
2018-09-01T13:10:42.144Z,39.19
2018-09-01T13:13:15.488Z,40.22
2018-09-01T13:15:48.789Z,39.31
2018-09-01T13:18:22.097Z,38.69
2018-09-01T13:20:55.412Z,38.86
2018-09-01T13:23:28.725Z,39.13
2018-09-01T13:26:02.083Z,39.14
2018-09-01T13:28:35.489Z,38.79
2018-09-01T13:31:15.409Z,39.83
2018-09-01T13:33:48.725Z,39.91
2018-09-01T13:36:22.113Z,40.00
2018-09-01T13:38:55.501Z,40.06
2018-09-01T13:41:28.823Z,39.96
2018-09-01T13:44:02.156Z,40.43
2018-09-01T13:46:35.449Z,40.29
2018-09-01T13:49:08.780Z,39.47
2018-09-01T13:51:42.096Z,40.34
2018-09-01T13:54:15.401Z,41.66
2018-09-01T13:56:48.714Z,39.87
2018-09-01T13:59:22.041Z,39.81
2018-09-01T14:01:55.347Z,40.16
2018-09-01T14:04:28.685Z,39.99
2018-09-01T14:07:02.018Z,39.49
2018-09-01T14:09:35.380Z,39.07
2018-09-01T14:12:08.688Z,38.62
2018-09-01T14:14:42.131Z,38.36
2018-09-01T14:17:15.355Z,38.07
2018-09-01T14:19:48.717Z,37.92
2018-09-01T14:22:22.033Z,38.04
2018-09-01T14:24:55.349Z,37.24
2018-09-01T14:27:28.693Z,37.74
2018-09-01T14:30:02.000Z,36.83
2018-09-01T14:32:35.346Z,37.05
2018-09-01T14:35:10.047Z,36.43
2018-09-01T14:37:43.372Z,36.64
2018-09-01T14:40:16.674Z,38.62
2018-09-01T14:42:49.989Z,38.19
2018-09-01T14:45:23.310Z,38.50
2018-09-01T14:47:56.623Z,38.31
2018-09-01T14:50:29.933Z,38.08
2018-09-01T14:53:03.258Z,38.24
2018-09-01T14:55:36.556Z,37.22
2018-09-01T14:58:09.893Z,37.38
2018-09-01T15:00:43.232Z,37.51
2018-09-01T15:03:16.589Z,38.58
2018-09-01T15:05:49.972Z,39.08
2018-09-01T15:08:23.333Z,38.95
2018-09-01T15:10:57.507Z,38.50
2018-09-01T15:13:30.931Z,39.49
2018-09-01T15:16:04.351Z,39.24
2018-09-01T15:18:37.767Z,39.36
2018-09-01T15:21:11.100Z,40.07
2018-09-01T15:23:44.440Z,40.01
2018-09-01T15:26:17.760Z,39.49
2018-09-01T15:28:51.105Z,40.09
2018-09-01T15:31:24.465Z,39.28
2018-09-01T15:33:58.648Z,40.11
2018-09-01T15:36:31.971Z,40.41
2018-09-01T15:39:05.940Z,40.12
2018-09-01T15:41:39.236Z,39.35
2018-09-01T15:44:12.686Z,39.59
2018-09-01T15:46:46.741Z,40.39
2018-09-01T15:49:20.068Z,40.13
2018-09-01T15:51:53.399Z,39.39
2018-09-01T15:54:26.924Z,40.55
2018-09-01T15:57:00.313Z,39.90
2018-09-01T15:59:33.640Z,40.30
2018-09-01T16:02:07.357Z,40.87
2018-09-01T16:04:40.705Z,41.25
2018-09-01T16:07:14.345Z,40.56
2018-09-01T16:09:47.664Z,40.84
2018-09-01T16:12:20.960Z,41.27
2018-09-01T16:14:54.291Z,41.06
2018-09-01T16:17:27.592Z,41.20
2018-09-01T16:20:00.936Z,40.54
2018-09-01T16:22:34.257Z,41.89
2018-09-01T16:25:07.664Z,41.14
2018-09-01T16:27:40.972Z,41.42
2018-09-01T16:30:14.292Z,41.37
2018-09-01T16:32:47.592Z,40.93
2018-09-01T16:35:20.946Z,42.31
2018-09-01T16:37:54.276Z,41.45
2018-09-01T16:40:27.632Z,41.90
2018-09-01T16:43:00.941Z,42.09
2018-09-01T16:45:34.323Z,41.35
2018-09-01T16:48:07.621Z,41.43
2018-09-01T16:50:40.957Z,41.18
2018-09-01T16:53:14.277Z,41.71
2018-09-01T16:55:47.630Z,41.86
2018-09-01T16:58:20.929Z,40.98
2018-09-01T17:00:54.323Z,41.51
2018-09-01T17:03:27.604Z,41.23
2018-09-01T17:06:00.953Z,42.06
2018-09-01T17:08:34.271Z,41.51
2018-09-01T17:11:07.592Z,42.18
2018-09-01T17:13:40.890Z,42.22
2018-09-01T17:16:14.221Z,42.62
2018-09-01T17:18:47.509Z,42.85
2018-09-01T17:21:20.817Z,42.22
2018-09-01T17:23:54.133Z,41.99
2018-09-01T17:26:27.453Z,42.58
2018-09-01T17:29:00.760Z,42.91
2018-09-01T17:31:34.103Z,43.12
2018-09-01T17:34:07.416Z,44.06
2018-09-01T17:36:40.729Z,44.13
2018-09-01T17:39:14.327Z,44.49
2018-09-01T17:41:47.805Z,44.75
2018-09-01T17:44:21.113Z,45.46
2018-09-01T17:46:54.425Z,45.71
2018-09-01T17:49:27.786Z,47.08
2018-09-01T17:52:01.111Z,46.62
2018-09-01T17:54:34.555Z,46.82
2018-09-01T17:57:08.444Z,47.37
2018-09-01T17:59:41.739Z,47.68
2018-09-01T18:02:15.241Z,48.10
2018-09-01T18:04:48.593Z,47.62
2018-09-01T18:07:21.932Z,48.20
2018-09-01T18:09:55.295Z,47.95
2018-09-01T18:12:29.055Z,48.32
2018-09-01T18:15:02.552Z,48.24
2018-09-01T18:17:35.944Z,48.47
2018-09-01T18:20:09.318Z,48.05
2018-09-01T18:22:42.626Z,48.62
2018-09-01T18:25:15.972Z,48.98
2018-09-01T18:27:49.286Z,49.10
2018-09-01T18:30:22.618Z,49.72
2018-09-01T18:32:55.928Z,49.45
2018-09-01T18:35:29.254Z,50.71
2018-09-01T18:38:02.612Z,51.41
2018-09-01T18:40:35.940Z,51.04
2018-09-01T18:43:09.284Z,51.12
2018-09-01T18:45:42.656Z,51.19
2018-09-01T18:48:15.981Z,51.28
2018-09-01T18:50:49.324Z,51.47
2018-09-01T18:53:22.688Z,51.41
2018-09-01T18:55:56.005Z,52.00
2018-09-01T18:58:29.308Z,52.34
2018-09-01T19:01:02.790Z,52.15
2018-09-01T19:03:36.499Z,52.23
2018-09-01T19:06:09.892Z,52.29
2018-09-01T19:08:43.252Z,52.57
2018-09-01T19:11:16.600Z,52.76
2018-09-01T19:13:49.958Z,52.69
2018-09-01T19:16:23.381Z,53.23
2018-09-01T19:18:56.684Z,53.46
2018-09-01T19:21:30.047Z,53.37
2018-09-01T19:24:03.390Z,54.06
2018-09-01T19:26:36.735Z,53.60
2018-09-01T19:29:10.156Z,54.30
2018-09-01T19:31:43.680Z,54.28
2018-09-01T19:34:17.010Z,54.50
2018-09-01T19:36:50.353Z,54.51
2018-09-01T19:39:23.668Z,54.97
2018-09-01T19:41:57.015Z,55.19
2018-09-01T19:44:30.370Z,55.51
2018-09-01T19:47:03.735Z,55.56
2018-09-01T19:49:37.052Z,55.99
2018-09-01T19:52:10.376Z,55.95
2018-09-01T19:54:43.705Z,56.36
2018-09-01T19:57:17.110Z,56.18
2018-09-01T19:59:50.545Z,56.37
2018-09-01T20:02:24.118Z,56.57
2018-09-01T20:04:57.485Z,56.91
2018-09-01T20:07:30.825Z,56.52
2018-09-01T20:10:04.176Z,56.87
2018-09-01T20:12:37.557Z,56.85
2018-09-01T20:15:10.945Z,56.89
2018-09-01T20:17:44.316Z,57.51
2018-09-01T20:20:17.681Z,57.07
2018-09-01T20:22:51.128Z,57.01
2018-09-01T20:25:24.598Z,56.95
2018-09-01T20:27:57.872Z,57.42
2018-09-01T20:30:31.281Z,57.53
2018-09-01T20:33:04.634Z,57.49
2018-09-01T20:35:43.221Z,58.13
2018-09-01T20:38:16.565Z,57.69
2018-09-01T20:40:49.930Z,57.86
2018-09-01T20:43:23.672Z,58.04
2018-09-01T20:45:56.987Z,57.70
2018-09-01T20:48:30.389Z,58.00
2018-09-01T20:51:05.322Z,58.33
2018-09-01T20:53:38.769Z,58.58
2018-09-01T20:56:12.098Z,58.97
2018-09-01T20:58:45.435Z,58.91
2018-09-01T21:01:18.745Z,59.15
2018-09-01T21:03:52.168Z,58.72
2018-09-01T21:06:28.691Z,59.01
2018-09-01T21:09:03.230Z,59.73
2018-09-01T21:11:36.639Z,59.55
2018-09-01T21:14:10.231Z,59.24
2018-09-01T21:16:43.624Z,60.02
2018-09-01T21:19:16.989Z,59.80
2018-09-01T21:21:50.409Z,60.07
2018-09-01T21:24:23.768Z,60.14
2018-09-01T21:26:57.114Z,59.79
2018-09-01T21:29:30.477Z,60.14
2018-09-01T21:32:03.817Z,59.91
2018-09-01T21:34:37.222Z,60.21
2018-09-01T21:37:10.543Z,60.22
2018-09-01T21:39:43.888Z,60.35
2018-09-01T21:42:17.204Z,60.31
2018-09-01T21:44:50.546Z,60.14
2018-09-01T21:47:23.900Z,60.50
2018-09-01T21:49:57.241Z,60.44
2018-09-01T21:52:30.739Z,60.82
2018-09-01T21:55:04.130Z,60.70
2018-09-01T21:57:37.433Z,60.69
2018-09-01T22:00:11.920Z,60.71
2018-09-01T22:02:45.225Z,60.43
2018-09-01T22:05:19.349Z,60.45
2018-09-01T22:07:52.723Z,60.97
2018-09-01T22:10:26.026Z,60.76
2018-09-01T22:12:59.312Z,61.01
2018-09-01T22:15:32.672Z,60.83
2018-09-01T22:18:06.086Z,60.92
2018-09-01T22:20:39.389Z,60.90
2018-09-01T22:23:12.678Z,60.70
2018-09-01T22:25:46.021Z,60.80
2018-09-01T22:28:19.352Z,61.07
2018-09-01T22:30:52.671Z,60.88
2018-09-01T22:33:26.463Z,60.70
2018-09-01T22:36:00.135Z,60.94
2018-09-01T22:38:33.615Z,61.18
2018-09-01T22:41:07.087Z,61.18
2018-09-01T22:43:40.510Z,60.82
2018-09-01T22:46:13.972Z,60.97
2018-09-01T22:48:47.519Z,61.13
2018-09-01T22:51:21.058Z,61.05
2018-09-01T22:53:54.471Z,60.79
2018-09-01T22:56:28.065Z,61.08
2018-09-01T22:59:02.035Z,61.06
2018-09-01T23:01:35.635Z,61.08
2018-09-01T23:04:09.061Z,60.96
2018-09-01T23:06:42.622Z,61.14
2018-09-01T23:09:15.924Z,61.02
2018-09-01T23:11:49.724Z,60.99
2018-09-01T23:14:23.197Z,61.16
2018-09-01T23:16:56.490Z,61.11
2018-09-01T23:19:29.861Z,61.04
2018-09-01T23:22:03.177Z,61.23
2018-09-01T23:24:36.470Z,61.26
2018-09-01T23:27:09.768Z,61.06
2018-09-01T23:29:43.065Z,60.99
2018-09-01T23:32:16.372Z,61.26
2018-09-01T23:34:50.506Z,61.59
2018-09-01T23:37:23.841Z,61.66
2018-09-01T23:39:57.128Z,61.58
2018-09-01T23:42:30.542Z,61.71
2018-09-01T23:45:04.034Z,61.50
2018-09-01T23:47:37.529Z,61.46
2018-09-01T23:50:10.822Z,61.92
2018-09-01T23:52:44.132Z,61.87
2018-09-01T23:55:17.432Z,62.19
2018-09-01T23:57:50.752Z,62.22
